Time;durP1;ratioP1;P1;durP2;ratioP2;P2;SDS_P1;SDS_P2;PMS_P1;PMS_P2;Temp;Humidity;BMP_temperature;BMP_pressure;BME280_temperature;BME280_humidity;BME280_pressure;Samples;Min_cycle;Max_cycle;Signal;HPM_P1;HPM_P2
2022/08/07 00:00:16;;;;;;;2.53;1.38;;;;;;;14.76;58.04;101256.38;5052676;28;20070;-75
2022/08/07 00:02:41;;;;;;;2.15;1.05;;;;;;;14.74;58.28;101247.44;5053704;28;20576;-74
2022/08/07 00:05:07;;;;;;;3.10;1.15;;;;;;;14.73;58.22;101256.56;5053772;28;20131;-73
2022/08/07 00:07:32;;;;;;;3.20;1.25;;;;;;;14.69;58.49;101245.25;5054108;28;20484;-74
2022/08/07 00:09:58;;;;;;;1.55;1.27;;;;;;;14.69;58.32;101248.13;5052374;28;20028;-74
2022/08/07 00:12:23;;;;;;;4.20;1.30;;;;;;;14.69;58.22;101250.22;5053346;28;20494;-74
2022/08/07 00:14:48;;;;;;;2.25;1.10;;;;;;;14.66;58.55;101254.91;5052602;28;20094;-74
2022/08/07 00:17:14;;;;;;;2.47;1.60;;;;;;;14.66;58.58;101256.97;5053517;28;20466;-74
2022/08/07 00:19:39;;;;;;;0.80;0.77;;;;;;;14.62;58.57;101248.56;5054358;28;20017;-73
2022/08/07 00:22:05;;;;;;;2.65;1.10;;;;;;;14.61;58.92;101257.69;5053447;28;20021;-75
2022/08/07 00:24:30;;;;;;;2.05;1.33;;;;;;;14.57;58.81;101254.19;5053484;28;20029;-73
2022/08/07 00:26:56;;;;;;;1.90;1.08;;;;;;;14.56;58.99;101250.50;5052138;28;20419;-73
2022/08/07 00:29:25;;;;;;;2.13;1.30;;;;;;;14.56;59.38;101261.22;5051792;28;20017;-73
2022/08/07 00:31:53;;;;;;;5.82;1.35;;;;;;;14.51;59.36;101253.28;5053274;28;20095;-74
2022/08/07 00:34:18;;;;;;;1.25;1.15;;;;;;;14.52;59.17;101254.88;5053593;28;20359;-74
2022/08/07 00:36:43;;;;;;;2.53;1.38;;;;;;;14.48;59.47;101248.56;5051935;28;20459;-74
2022/08/07 00:39:10;;;;;;;2.42;1.48;;;;;;;14.50;59.80;101249.63;5053072;28;20064;-74
2022/08/07 00:41:36;;;;;;;2.28;1.45;;;;;;;14.50;59.72;101248.81;5053247;28;20036;-75
2022/08/07 00:44:01;;;;;;;2.22;1.20;;;;;;;14.48;59.85;101243.56;5051874;28;20021;-74
2022/08/07 00:46:27;;;;;;;2.75;1.23;;;;;;;14.47;59.85;101244.06;5053512;28;20060;-73
2022/08/07 00:48:52;;;;;;;2.75;1.38;;;;;;;14.43;59.68;101236.44;5051864;28;20056;-75
2022/08/07 00:51:18;;;;;;;2.67;1.40;;;;;;;14.43;59.81;101244.25;5053048;28;20046;-73
2022/08/07 00:53:43;;;;;;;2.35;1.20;;;;;;;14.40;60.00;101240.31;5053236;28;20033;-73
2022/08/07 00:56:11;;;;;;;2.80;1.40;;;;;;;14.39;59.97;101243.66;5051857;28;20039;-74
2022/08/07 00:58:39;;;;;;;2.88;1.33;;;;;;;14.36;59.93;101239.72;5052192;28;20124;-72
2022/08/07 01:01:05;;;;;;;2.92;1.30;;;;;;;14.35;60.20;101237.34;5051659;28;20029;-73
2022/08/07 01:03:30;;;;;;;2.25;1.13;;;;;;;14.32;60.45;101236.25;5052881;28;20112;-73
2022/08/07 01:05:56;;;;;;;2.95;1.50;;;;;;;14.28;60.55;101244.28;5051821;28;20086;-74
2022/08/07 01:08:21;;;;;;;2.50;1.33;;;;;;;14.15;60.54;101226.53;5053016;28;20029;-74
2022/08/07 01:10:47;;;;;;;3.30;1.38;;;;;;;14.20;60.80;101248.84;5052911;28;20039;-72
2022/08/07 01:13:12;;;;;;;4.40;1.40;;;;;;;14.17;60.85;101251.91;5051698;28;20147;-73
2022/08/07 01:15:38;;;;;;;3.53;1.48;;;;;;;14.16;60.97;101247.44;5051414;28;20025;-73
2022/08/07 01:18:04;;;;;;;3.03;1.27;;;;;;;14.10;61.08;101250.22;5051970;28;20029;-74
2022/08/07 01:20:34;;;;;;;2.25;1.45;;;;;;;14.06;61.42;101245.97;5056218;28;20071;-73
2022/08/07 01:23:00;;;;;;;2.63;1.50;;;;;;;14.01;61.34;101258.94;5056773;28;20032;-73
2022/08/07 01:25:26;;;;;;;1.52;1.40;;;;;;;13.96;61.42;101251.81;5055749;28;20044;-73
2022/08/07 01:27:52;;;;;;;2.78;1.42;;;;;;;13.91;61.37;101252.50;5055713;28;20033;-73
2022/08/07 01:30:17;;;;;;;2.55;1.50;;;;;;;13.88;61.74;101253.47;5055247;28;20485;-75
2022/08/07 01:32:43;;;;;;;1.80;1.52;;;;;;;13.84;61.48;101249.97;5055363;28;20055;-73
2022/08/07 01:35:08;;;;;;;2.67;1.40;;;;;;;13.79;62.12;101255.63;5038762;28;20033;-73
2022/08/07 01:37:34;;;;;;;3.83;1.65;;;;;;;13.73;62.25;101254.75;5056990;28;20048;-73
2022/08/07 01:40:01;;;;;;;4.95;1.92;;;;;;;13.66;62.74;101258.78;5038546;28;20410;-74
2022/08/07 01:42:26;;;;;;;2.75;1.42;;;;;;;13.62;62.98;101260.25;5055194;28;20036;-73
2022/08/07 01:44:52;;;;;;;3.08;1.33;;;;;;;13.55;63.02;101258.53;5054995;28;20450;-74
2022/08/07 01:47:17;;;;;;;3.60;1.77;;;;;;;13.50;63.67;101250.56;5056674;28;20488;-74
2022/08/07 01:49:43;;;;;;;3.65;1.50;;;;;;;13.41;63.68;101248.56;5055557;28;20033;-73
2022/08/07 01:52:09;;;;;;;2.25;1.48;;;;;;;13.45;63.99;101265.59;5056382;28;20033;-73
2022/08/07 01:54:36;;;;;;;1.65;1.48;;;;;;;13.43;64.10;101265.31;5055378;28;20032;-73
2022/08/07 01:57:07;;;;;;;5.13;1.52;;;;;;;13.39;64.52;101261.84;5054995;28;20036;-73
2022/08/07 01:59:40;;;;;;;2.85;1.38;;;;;;;13.36;64.21;101262.78;5054899;28;20021;-73
2022/08/07 02:02:08;;;;;;;3.75;1.40;;;;;;;13.32;64.64;101265.84;5055111;28;20025;-74
2022/08/07 02:04:48;;;;;;;3.10;1.35;;;;;;;13.30;64.98;101268.41;5054801;28;20036;-74
2022/08/07 02:07:15;;;;;;;1.52;1.42;;;;;;;13.27;64.58;101260.78;5054802;28;20044;-74
2022/08/07 02:09:41;;;;;;;2.92;2.03;;;;;;;13.22;64.69;101263.53;5055823;28;20502;-73
2022/08/07 02:12:17;;;;;;;3.65;1.88;;;;;;;13.22;64.83;101267.19;5054660;28;20104;-74
2022/08/07 02:14:46;;;;;;;5.40;1.63;;;;;;;13.19;65.10;101270.25;5056594;28;20025;-73
2022/08/07 02:17:13;;;;;;;1.75;1.52;;;;;;;13.12;65.22;101260.72;5055106;28;20037;-73
2022/08/07 02:19:42;;;;;;;3.28;1.65;;;;;;;13.10;65.50;101265.34;5055074;28;20032;-74
2022/08/07 02:22:13;;;;;;;2.08;1.80;;;;;;;13.08;65.71;101271.59;5055901;28;20029;-73
2022/08/07 02:24:41;;;;;;;3.13;1.38;;;;;;;13.05;65.48;101272.56;5054700;28;20029;-73
2022/08/07 02:27:07;;;;;;;2.85;2.08;;;;;;;13.00;65.82;101252.34;5055908;28;20044;-74
2022/08/07 02:29:33;;;;;;;3.40;1.90;;;;;;;12.98;66.25;101267.19;5055451;28;20032;-73
2022/08/07 02:31:59;;;;;;;3.13;1.60;;;;;;;12.96;66.29;101275.47;5036764;28;20462;-74
2022/08/07 02:34:26;;;;;;;3.17;2.03;;;;;;;12.92;66.50;101260.53;5054461;28;20025;-73
2022/08/07 02:36:51;;;;;;;3.08;1.88;;;;;;;12.87;66.36;101257.50;5054164;28;20158;-74
2022/08/07 02:39:17;;;;;;;3.03;1.70;;;;;;;12.88;66.96;101262.78;5053859;28;20151;-73
2022/08/07 02:41:44;;;;;;;3.67;2.13;;;;;;;12.85;66.91;101257.22;5055699;28;20025;-74
2022/08/07 02:44:10;;;;;;;2.90;1.80;;;;;;;12.84;67.11;101255.63;5054123;28;20488;-73
2022/08/07 02:46:36;;;;;;;3.25;1.85;;;;;;;12.82;67.07;101264.72;5055349;28;20029;-73
2022/08/07 02:49:03;;;;;;;3.85;1.67;;;;;;;12.68;67.25;101236.75;5054224;28;20055;-73
2022/08/07 02:51:31;;;;;;;3.40;1.77;;;;;;;12.76;67.40;101257.25;5053938;28;20115;-74
2022/08/07 02:53:57;;;;;;;2.97;1.55;;;;;;;12.76;67.35;101262.97;5054128;28;20029;-74
2022/08/07 02:56:24;;;;;;;3.40;1.70;;;;;;;12.74;67.28;101265.56;5053924;28;20040;-74
2022/08/07 02:58:51;;;;;;;2.70;1.75;;;;;;;12.72;67.61;101265.22;5053967;28;20059;-74
2022/08/07 03:01:19;;;;;;;2.28;1.50;;;;;;;12.69;67.85;101272.75;5053901;28;20029;-74
2022/08/07 03:03:45;;;;;;;3.78;1.90;;;;;;;12.65;68.01;101260.66;5054877;28;20052;-74
2022/08/07 03:06:11;;;;;;;2.90;1.45;;;;;;;12.56;67.95;101252.06;5036988;28;20086;-74
2022/08/07 03:08:36;;;;;;;4.25;1.33;;;;;;;12.61;68.23;101263.69;5054963;28;20040;-73
2022/08/07 03:11:02;;;;;;;3.13;1.80;;;;;;;12.59;68.01;101257.66;5053574;28;20127;-74
2022/08/07 03:13:28;;;;;;;1.63;1.52;;;;;;;12.58;68.44;101256.06;5053695;28;20029;-74
2022/08/07 03:15:54;;;;;;;2.03;1.70;;;;;;;12.55;68.63;101257.00;5053357;28;20033;-73
2022/08/07 03:18:21;;;;;;;2.30;1.50;;;;;;;12.55;68.53;101257.00;5055004;28;20040;-73
2022/08/07 03:20:46;;;;;;;4.25;1.90;;;;;;;12.51;68.75;101256.38;5053290;28;20033;-73
2022/08/07 03:23:12;;;;;;;3.65;1.90;;;;;;;12.50;68.59;101249.09;5053673;28;20083;-73
2022/08/07 03:25:39;;;;;;;2.80;1.52;;;;;;;12.51;68.48;101256.38;5053292;28;20033;-74
2022/08/07 03:28:06;;;;;;;4.18;2.00;;;;;;;12.49;68.47;101256.09;5053434;28;20124;-74
2022/08/07 03:30:32;;;;;;;1.70;1.60;;;;;;;12.47;68.51;101250.03;5053230;28;20317;-73
2022/08/07 03:32:59;;;;;;;4.00;1.88;;;;;;;12.46;68.75;101257.03;5036537;28;20017;-75
2022/08/07 03:35:26;;;;;;;1.88;1.60;;;;;;;12.33;68.57;101233.50;5053104;28;20036;-73
2022/08/07 03:37:55;;;;;;;7.97;1.58;;;;;;;12.40;68.77;101258.19;5053063;28;20028;-72
2022/08/07 03:40:21;;;;;;;2.67;1.40;;;;;;;12.43;68.88;101260.88;5052889;28;20037;-73
2022/08/07 03:42:47;;;;;;;3.15;1.52;;;;;;;12.42;68.65;101270.75;5052977;28;20036;-73
2022/08/07 03:45:13;;;;;;;2.55;1.60;;;;;;;12.43;68.85;101275.22;5053032;28;20108;-74
2022/08/07 03:47:38;;;;;;;2.95;1.60;;;;;;;12.43;69.11;101272.34;5052938;28;20047;-73
2022/08/07 03:50:04;;;;;;;3.40;1.73;;;;;;;12.45;69.64;101277.63;5036066;28;20131;-73
2022/08/07 03:52:30;;;;;;;1.92;1.38;;;;;;;12.36;70.47;101257.53;5053170;28;20044;-73
2022/08/07 03:54:57;;;;;;;2.17;1.98;;;;;;;12.46;70.72;101279.19;5052888;28;20308;-74
2022/08/07 03:57:24;;;;;;;2.00;1.70;;;;;;;12.47;70.52;101275.84;5053907;28;20025;-73
2022/08/07 03:59:50;;;;;;;4.28;1.73;;;;;;;12.50;70.40;101282.69;5035988;28;20071;-74
2022/08/07 04:02:16;;;;;;;3.58;1.40;;;;;;;12.53;70.29;101279.66;5053705;28;20048;-73
2022/08/07 04:04:41;;;;;;;2.38;1.80;;;;;;;12.58;70.06;101283.94;5035976;28;20025;-74
2022/08/07 04:07:07;;;;;;;2.17;1.73;;;;;;;12.62;69.91;101285.34;5035942;28;20128;-74
2022/08/07 04:09:34;;;;;;;2.72;1.50;;;;;;;12.67;69.90;101296.16;5052664;28;20025;-74
2022/08/07 04:12:00;;;;;;;3.05;1.63;;;;;;;12.73;69.56;101287.69;5053714;28;20394;-73
2022/08/07 04:14:26;;;;;;;5.75;1.42;;;;;;;12.78;69.36;101284.19;5052598;28;20477;-74
2022/08/07 04:16:51;;;;;;;1.55;1.33;;;;;;;12.75;69.01;101270.00;5052426;28;20028;-74
2022/08/07 04:19:17;;;;;;;4.07;1.40;;;;;;;12.89;68.78;101286.53;5052834;28;20021;-73
2022/08/07 04:21:42;;;;;;;2.90;1.75;;;;;;;12.93;68.25;101279.31;5053960;28;20116;-73
2022/08/07 04:24:09;;;;;;;2.92;1.42;;;;;;;13.01;68.02;101277.69;5052473;28;20103;-74
2022/08/07 04:26:37;;;;;;;1.30;1.20;;;;;;;13.07;67.49;101275.75;5052558;28;20021;-74
2022/08/07 04:29:03;;;;;;;1.88;1.50;;;;;;;13.11;66.81;101269.81;5053515;28;20429;-73
2022/08/07 04:31:29;;;;;;;4.18;1.20;;;;;;;13.23;66.22;101282.34;5051963;28;20489;-74
2022/08/07 04:33:54;;;;;;;2.75;1.13;;;;;;;13.30;66.04;101281.97;5053780;28;20025;-74
2022/08/07 04:36:20;;;;;;;2.05;1.23;;;;;;;13.29;65.60;101271.78;5052366;28;20082;-73
2022/08/07 04:38:45;;;;;;;1.98;1.35;;;;;;;13.44;65.43;101279.16;5052943;28;20045;-73
2022/08/07 04:41:11;;;;;;;1.83;1.20;;;;;;;13.48;64.94;101281.88;5053150;28;20021;-73
2022/08/07 04:43:38;;;;;;;3.95;2.13;;;;;;;13.58;64.55;101282.63;5053348;28;20059;-73
2022/08/07 04:46:10;;;;;;;2.20;1.20;;;;;;;13.67;64.35;101283.34;5053065;28;20470;-74
2022/08/07 04:49:08;;;;;;;1.67;1.20;;;;;;;13.79;63.98;101279.41;5052159;28;20407;-73
2022/08/07 04:51:40;;;;;;;1.73;1.38;;;;;;;13.86;63.60;101290.53;5018211;28;20064;-74
2022/08/07 04:54:12;;;;;;;2.58;1.00;;;;;;;13.97;63.07;101293.63;5052774;28;20027;-74
2022/08/07 04:56:40;;;;;;;;;;;;;;;14.05;62.82;101287.47;5052274;28;20052;-73
2022/08/07 04:59:17;;;;;;;2.40;1.10;;;;;;;14.14;62.70;101296.81;5053346;28;19923;-74
2022/08/07 05:01:54;;;;;;;4.80;1.98;;;;;;;14.21;62.50;101296.44;5051897;28;20029;-73
2022/08/07 05:04:57;;;;;;;2.45;1.17;;;;;;;14.31;61.88;101302.88;5052158;28;20492;-74
2022/08/07 05:07:39;;;;;;;2.75;1.38;;;;;;;14.38;61.96;101300.38;5053262;28;20075;-74
2022/08/07 05:10:10;;;;;;;2.55;2.13;;;;;;;14.47;61.71;101305.28;5051694;28;20028;-74
2022/08/07 05:12:39;;;;;;;3.03;1.40;;;;;;;14.56;61.59;101315.88;5051699;28;20060;-74
2022/08/07 05:15:15;;;;;;;3.10;1.45;;;;;;;14.63;61.58;101312.63;5052921;28;20029;-74
2022/08/07 05:17:45;;;;;;;1.40;1.30;;;;;;;14.71;61.22;101313.81;5052003;28;20094;-74
2022/08/07 05:20:12;;;;;;;2.63;1.30;;;;;;;14.78;61.04;101310.53;5051964;28;20374;-74
2022/08/07 05:22:38;;;;;;;1.88;1.50;;;;;;;14.83;60.97;101304.84;5051965;28;20393;-74
2022/08/07 05:25:04;;;;;;;2.25;1.20;;;;;;;14.96;60.82;101306.63;5051668;28;20029;-74
2022/08/07 05:27:30;;;;;;;2.80;1.50;;;;;;;15.01;60.63;101303.06;5051864;28;20436;-73
2022/08/07 05:29:56;;;;;;;1.73;1.38;;;;;;;15.10;60.62;101308.69;5051301;28;20025;-75
2022/08/07 05:32:23;;;;;;;2.47;1.33;;;;;;;15.16;60.63;101306.69;5051639;28;20024;-73
2022/08/07 05:34:49;;;;;;;1.80;1.00;;;;;;;15.22;60.57;101304.66;5051433;28;20469;-73
2022/08/07 05:37:16;;;;;;;2.45;1.42;;;;;;;15.28;60.38;101312.09;5052802;28;20081;-74
2022/08/07 05:39:42;;;;;;;4.03;1.63;;;;;;;15.37;60.51;101305.41;5051297;28;20390;-74
2022/08/07 05:42:07;;;;;;;2.10;1.08;;;;;;;15.50;60.24;101310.84;5052678;28;20033;-74
2022/08/07 05:44:34;;;;;;;3.67;1.48;;;;;;;15.60;60.44;101310.22;5052590;28;20025;-74
2022/08/07 05:47:00;;;;;;;3.40;1.38;;;;;;;15.66;60.29;101308.19;5052554;28;20052;-73
2022/08/07 05:49:25;;;;;;;2.45;1.60;;;;;;;15.78;60.07;101317.00;5051442;28;20075;-74
2022/08/07 05:51:51;;;;;;;1.70;1.23;;;;;;;15.84;59.77;101315.78;5051427;28;20444;-74
2022/08/07 05:54:16;;;;;;;3.28;1.27;;;;;;;15.92;59.99;101321.88;5052522;28;20447;-73
2022/08/07 05:56:43;;;;;;;1.60;1.00;;;;;;;15.98;59.55;101329.31;5051238;28;20048;-74
2022/08/07 05:59:15;;;;;;;2.38;1.10;;;;;;;16.03;59.78;101325.69;5052353;28;20520;-73
2022/08/07 06:01:41;;;;;;;2.67;0.95;;;;;;;16.09;59.80;101317.91;5051230;28;20079;-74
2022/08/07 06:04:07;;;;;;;1.80;1.25;;;;;;;16.14;59.72;101322.16;5051400;28;20035;-73
2022/08/07 06:06:33;;;;;;;1.55;0.88;;;;;;;16.22;59.67;101323.28;5037673;28;20029;-75
2022/08/07 06:09:00;;;;;;;3.45;1.10;;;;;;;16.28;59.90;101320.47;5054743;28;20474;-74
2022/08/07 06:11:25;;;;;;;3.53;1.00;;;;;;;16.28;60.09;101315.50;5054649;28;20029;-74
2022/08/07 06:13:51;;;;;;;2.67;1.02;;;;;;;16.44;59.87;101328.50;5056274;28;20029;-74
2022/08/07 06:16:18;;;;;;;1.55;1.00;;;;;;;16.52;60.01;101333.31;5037968;28;20016;-74
2022/08/07 06:18:44;;;;;;;2.17;1.33;;;;;;;16.59;60.09;101335.00;5055104;28;20439;-73
2022/08/07 06:21:10;;;;;;;2.33;1.17;;;;;;;16.65;59.62;101330.03;5054589;28;20072;-74
2022/08/07 06:23:36;;;;;;;1.90;1.23;;;;;;;16.77;59.18;101328.06;5054702;28;20124;-73
2022/08/07 06:26:02;;;;;;;1.27;1.15;;;;;;;16.82;58.90;101331.00;5054323;28;20032;-75
2022/08/07 06:28:28;;;;;;;2.25;1.05;;;;;;;16.84;59.00;101322.63;5055762;28;20381;-74
2022/08/07 06:30:54;;;;;;;2.35;1.23;;;;;;;16.98;59.14;101338.22;5054253;28;20021;-74
2022/08/07 06:33:20;;;;;;;1.40;1.20;;;;;;;17.10;58.91;101333.31;5055697;28;20104;-74
2022/08/07 06:35:46;;;;;;;1.55;1.30;;;;;;;17.19;58.56;101338.91;5054368;28;20025;-74
2022/08/07 06:38:11;;;;;;;1.95;1.23;;;;;;;17.67;58.64;101344.75;5055129;28;20067;-74
2022/08/07 06:40:48;;;;;;;2.25;0.90;;;;;;;19.61;56.48;101331.88;5054094;28;20032;-75
2022/08/07 06:43:14;;;;;;;0.65;0.65;;;;;;;22.53;50.76;101322.47;5037760;28;20059;-74
2022/08/07 06:45:40;;;;;;;3.25;0.75;;;;;;;25.42;44.02;101331.03;5054730;28;20439;-74
2022/08/07 06:48:05;;;;;;;3.03;0.95;;;;;;;28.12;39.40;101346.03;5055571;28;20028;-74
2022/08/07 06:50:32;;;;;;;1.50;1.02;;;;;;;30.30;32.74;101358.97;5054378;28;20428;-74
2022/08/07 06:52:58;;;;;;;2.15;0.85;;;;;;;32.13;30.90;101366.53;5054335;28;20095;-75
2022/08/07 06:55:25;;;;;;;1.10;0.80;;;;;;;33.81;28.42;101370.19;5037414;28;20109;-76
2022/08/07 06:57:52;;;;;;;2.13;0.88;;;;;;;35.16;24.01;101370.56;5055734;28;20021;-74
2022/08/07 07:00:18;;;;;;;3.85;0.90;;;;;;;36.27;24.19;101373.06;5053916;28;20029;-75
2022/08/07 07:02:44;;;;;;;0.75;0.68;;;;;;;37.25;22.86;101384.09;5053897;28;20021;-75
2022/08/07 07:05:09;;;;;;;2.10;0.80;;;;;;;38.23;22.01;101381.28;5053963;28;20147;-75
2022/08/07 07:07:35;;;;;;;2.67;0.90;;;;;;;39.09;20.49;101374.47;5037166;28;20044;-75
2022/08/07 07:10:00;;;;;;;0.95;0.70;;;;;;;39.70;19.77;101378.13;5053770;28;20480;-77
2022/08/07 07:12:36;;;;;;;0.82;0.55;;;;;;;40.45;18.32;101372.53;5054989;28;20098;-75
2022/08/07 07:15:10;;;;;;;1.33;0.88;;;;;;;40.53;17.28;101376.63;5053527;28;20039;-75
2022/08/07 07:17:45;;;;;;;0.85;0.65;;;;;;;40.82;17.75;101365.88;5054372;28;20036;-74
2022/08/07 07:20:15;;;;;;;1.33;0.68;;;;;;;41.10;16.85;101378.25;5053397;28;20077;-75
2022/08/07 07:22:41;;;;;;;0.63;0.60;;;;;;;41.30;17.53;101358.06;5055183;28;20086;-75
2022/08/07 07:25:08;;;;;;;2.55;0.80;;;;;;;41.88;17.04;101369.34;5055057;28;20025;-75
2022/08/07 07:27:38;;;;;;;6.03;0.90;;;;;;;42.41;16.07;101370.50;5054811;28;20135;-75
2022/08/07 07:30:05;;;;;;;3.35;0.75;;;;;;;43.05;16.26;101357.63;5036816;28;20436;-75
2022/08/07 07:32:34;;;;;;;3.28;0.93;;;;;;;43.44;14.98;101359.59;5053304;28;20060;-75
2022/08/07 07:35:01;;;;;;;1.13;0.85;;;;;;;43.25;14.63;101365.75;5053160;28;20473;-75
2022/08/07 07:37:28;;;;;;;0.95;0.75;;;;;;;43.06;14.77;101362.16;5054476;28;20100;-76
2022/08/07 07:39:58;;;;;;;0.82;0.70;;;;;;;43.23;15.17;101360.44;5052866;28;20490;-76
2022/08/07 07:42:25;;;;;;;1.03;0.60;;;;;;;43.22;15.21;101358.91;5052930;28;20068;-74
2022/08/07 07:44:52;;;;;;;1.63;0.68;;;;;;;43.28;15.17;101353.06;5052833;28;20394;-75
2022/08/07 07:47:17;;;;;;;1.50;0.70;;;;;;;43.45;13.87;101367.16;5052759;28;20064;-75
2022/08/07 07:49:44;;;;;;;2.75;0.85;;;;;;;43.42;14.78;101350.53;5054069;28;20060;-75
2022/08/07 07:52:11;;;;;;;3.00;1.05;;;;;;;43.35;14.41;101357.03;5054290;28;20032;-74
2022/08/07 07:54:38;;;;;;;1.92;0.73;;;;;;;43.12;14.43;101359.38;5052917;28;20486;-74
2022/08/07 07:57:04;;;;;;;2.63;0.70;;;;;;;42.65;14.77;101347.28;5052793;28;20071;-74
2022/08/07 07:59:30;;;;;;;1.17;0.43;;;;;;;42.38;15.18;101338.81;5036076;28;20052;-75
2022/08/07 08:01:55;;;;;;;2.08;0.57;;;;;;;42.26;15.22;101342.16;5035931;28;20375;-76
2022/08/07 08:04:22;;;;;;;2.42;0.40;;;;;;;41.76;14.06;101350.84;5052643;28;20025;-75
2022/08/07 08:06:48;;;;;;;2.08;0.55;;;;;;;41.08;14.38;101342.16;5035861;28;20029;-76
2022/08/07 08:09:15;;;;;;;5.88;0.77;;;;;;;40.40;14.41;101340.81;5052817;28;20059;-76
2022/08/07 08:11:42;;;;;;;2.30;0.50;;;;;;;40.10;15.61;101334.25;5052665;28;20036;-77
2022/08/07 08:14:07;;;;;;;1.17;0.82;;;;;;;39.70;16.17;101330.97;5035890;28;20029;-77
2022/08/07 08:16:38;;;;;;;0.98;0.60;;;;;;;39.41;16.32;101325.13;5052334;28;20040;-74
2022/08/07 08:19:10;;;;;;;1.90;1.02;;;;;;;39.19;15.95;101333.06;5052616;28;20591;-77
2022/08/07 08:27:16;;;;;;;0.73;0.50;;;;;;;38.53;16.05;101331.28;5054011;28;20501;-76
2022/08/07 08:29:41;;;;;;;0.57;0.50;;;;;;;38.44;16.77;101317.38;5052559;28;20079;-76
2022/08/07 08:32:09;;;;;;;1.37;0.47;;;;;;;38.40;16.20;101326.91;5053527;28;20036;-76
2022/08/07 08:34:37;;;;;;;2.85;1.08;;;;;;;38.42;16.49;101329.22;5052492;28;20750;-75
2022/08/07 08:37:03;;;;;;;2.80;0.90;;;;;;;38.34;15.68;101334.78;5052319;28;20032;-75
2022/08/07 08:39:29;;;;;;;1.27;0.50;;;;;;;38.19;15.59;101326.53;5051733;28;20048;-74
2022/08/07 08:42:49;;;;;;;0.93;0.60;;;;;;;37.19;15.75;101324.09;5052176;28;20024;-76
2022/08/07 08:45:37;;;;;;;2.92;0.75;;;;;;;35.67;17.26;101317.28;4972708;28;20484;-75
2022/08/07 08:48:22;;;;;;;0.65;0.30;;;;;;;34.30;18.06;101315.00;5047067;28;20428;-76
2022/08/07 08:50:53;;;;;;;2.85;0.40;;;;;;;34.04;18.62;101293.19;5053342;28;20029;-76
2022/08/07 08:53:37;;;;;;;2.05;0.57;;;;;;;34.00;18.91;101309.94;5052345;28;20462;-75
2022/08/07 08:56:18;;;;;;;0.50;0.50;;;;;;;34.04;19.32;101290.22;5052146;28;20025;-77
2022/08/07 08:59:21;;;;;;;2.22;0.68;;;;;;;34.15;19.93;101303.59;5053599;28;20013;-77
2022/08/07 09:01:49;;;;;;;1.20;0.60;;;;;;;34.02;19.58;101298.22;5052596;28;20041;-75
2022/08/07 09:04:35;;;;;;;1.65;0.50;;;;;;;34.06;18.95;101304.44;5051955;28;20075;-76
2022/08/07 09:07:01;;;;;;;2.60;0.38;;;;;;;34.10;18.68;101308.44;5052178;28;20021;-76
2022/08/07 09:09:57;;;;;;;0.80;0.40;;;;;;;34.14;18.67;101299.06;5051738;28;20029;-75
2022/08/07 09:12:28;;;;;;;0.85;0.35;;;;;;;34.08;19.05;101299.41;5053184;28;20025;-75
2022/08/07 09:15:11;;;;;;;0.95;0.40;;;;;;;33.68;18.38;101305.50;5052960;28;20465;-75
2022/08/07 09:17:48;;;;;;;3.28;0.70;;;;;;;32.95;19.69;101297.25;5053125;28;20413;-75
2022/08/07 09:20:30;;;;;;;0.98;0.50;;;;;;;32.47;19.68;101294.44;5052076;28;20017;-75
2022/08/07 09:23:05;;;;;;;0.77;0.50;;;;;;;32.24;20.14;101289.78;5052988;28;20535;-76
2022/08/07 09:25:41;;;;;;;1.83;0.75;;;;;;;31.99;20.32;101280.44;5051971;28;20029;-76
2022/08/07 09:28:09;;;;;;;1.90;0.50;;;;;;;31.49;21.11;101279.44;5051577;28;20029;-74
2022/08/07 09:30:53;;;;;;;2.38;0.60;;;;;;;30.70;21.22;101282.72;5051588;28;20382;-76
2022/08/07 09:33:37;;;;;;;1.92;0.70;;;;;;;29.89;21.52;101281.00;5051666;28;20110;-75
2022/08/07 09:36:14;;;;;;;1.95;0.45;;;;;;;29.44;22.95;101265.34;5052781;28;20036;-76
2022/08/07 09:38:56;;;;;;;1.17;0.70;;;;;;;29.44;23.56;101258.66;5051266;28;20051;-76
2022/08/07 09:41:43;;;;;;;0.85;0.43;;;;;;;29.59;23.28;101271.13;5037448;28;20035;-76
2022/08/07 09:44:20;;;;;;;3.42;0.75;;;;;;;29.68;22.35;101270.41;5055559;28;20053;-76
2022/08/07 09:47:07;;;;;;;0.80;0.40;;;;;;;29.55;22.10;101264.84;5055326;28;20024;-76
2022/08/07 09:49:37;;;;;;;2.42;0.82;;;;;;;29.26;21.81;101260.81;5054950;28;20045;-74
2022/08/07 09:52:14;;;;;;;1.38;0.60;;;;;;;29.00;22.33;101255.53;5038256;28;20032;-74
2022/08/07 09:54:48;;;;;;;0.50;0.50;;;;;;;28.86;22.61;101261.72;5056329;28;20478;-76
2022/08/07 09:57:46;;;;;;;1.25;0.68;;;;;;;28.83;22.29;101260.00;5038459;28;20033;-75
2022/08/07 10:00:14;;;;;;;1.88;0.70;;;;;;;28.62;22.32;101268.38;5054964;28;20024;-75
2022/08/07 10:02:57;;;;;;;0.98;0.50;;;;;;;28.36;21.66;101254.19;5055138;28;20039;-75
2022/08/07 10:05:38;;;;;;;1.17;0.75;;;;;;;28.19;22.52;101243.13;5056103;28;20025;-76
2022/08/07 10:08:21;;;;;;;0.73;0.70;;;;;;;28.07;23.27;101247.09;5055957;28;20029;-75
2022/08/07 10:10:53;;;;;;;1.17;0.80;;;;;;;27.91;22.80;101252.25;5056156;28;20033;-76
2022/08/07 10:13:25;;;;;;;1.05;0.75;;;;;;;27.78;23.34;101256.19;5054881;28;20033;-75
2022/08/07 10:16:09;;;;;;;;;;;;;;;27.59;22.76;101252.94;5056254;28;20035;-74
2022/08/07 10:18:40;;;;;;;1.90;0.90;;;;;;;27.38;23.73;101241.41;5055788;28;19908;-74
2022/08/07 10:21:08;;;;;;;;;;;;;;;27.24;23.26;101242.19;5056278;28;20028;-76
2022/08/07 10:23:59;;;;;;;1.00;0.77;;;;;;;27.04;22.90;101238.09;5055512;28;20349;-75
2022/08/07 10:26:50;;;;;;;0.85;0.57;;;;;;;26.83;23.98;101232.44;5054175;28;20028;-75
2022/08/07 10:29:53;;;;;;;1.92;1.00;;;;;;;26.59;24.71;101235.91;5045330;28;20045;-74
2022/08/07 10:32:49;;;;;;;2.78;0.90;;;;;;;26.46;25.32;101227.28;5055793;28;20128;-75
2022/08/07 10:35:26;;;;;;;0.60;0.60;;;;;;;26.51;26.00;101226.31;5055714;28;20039;-75
2022/08/07 10:38:19;;;;;;;2.63;0.95;;;;;;;26.59;25.35;101219.09;5055516;28;20025;-75
2022/08/07 10:40:55;;;;;;;4.38;0.82;;;;;;;26.49;25.39;101223.19;4998305;28;20038;-76
2022/08/07 10:43:25;;;;;;;1.05;0.80;;;;;;;26.42;25.19;101221.03;5014840;28;20029;-75
2022/08/07 10:45:56;;;;;;;1.40;0.88;;;;;;;26.36;25.29;101217.50;5015609;28;20041;-75
2022/08/07 10:48:31;;;;;;;1.33;0.90;;;;;;;26.14;25.25;101211.00;5014349;28;20022;-74
2022/08/07 10:51:00;;;;;;;1.02;0.47;;;;;;;25.79;25.35;101185.44;5015920;28;20065;-75
2022/08/07 10:53:31;;;;;;;0.73;0.52;;;;;;;25.73;26.07;101200.25;5013556;28;20037;-74
2022/08/07 10:56:04;;;;;;;;;;;;;;;25.59;26.48;101192.97;5015889;28;20038;-75
2022/08/07 10:58:54;;;;;;;5.10;0.60;;;;;;;25.46;26.17;101190.94;5015496;28;19916;-75
2022/08/07 11:01:26;;;;;;;1.40;0.57;;;;;;;25.36;26.66;101192.84;5013937;28;20029;-75
2022/08/07 11:04:01;;;;;;;1.83;0.60;;;;;;;25.32;26.95;101192.44;5015241;28;20120;-75
2022/08/07 11:06:42;;;;;;;2.97;0.77;;;;;;;25.25;26.88;101192.38;5014312;28;20030;-75
2022/08/07 11:09:30;;;;;;;2.27;0.73;;;;;;;25.14;27.55;101184.69;5015221;28;20038;-74
2022/08/07 11:12:23;;;;;;;0.77;0.70;;;;;;;25.02;27.21;101190.09;5015289;28;20037;-76
2022/08/07 11:14:53;;;;;;;0.40;0.40;;;;;;;24.86;27.08;101193.44;5014018;28;20117;-74
2022/08/07 11:17:42;;;;;;;2.20;1.10;;;;;;;24.59;27.46;101184.06;5013996;28;20042;-75
2022/08/07 11:20:21;;;;;;;2.05;0.93;;;;;;;24.26;27.05;101182.75;5014105;28;20273;-75
2022/08/07 11:23:01;;;;;;;2.15;0.50;;;;;;;24.08;27.93;101177.88;5015238;28;20030;-75
2022/08/07 11:25:35;;;;;;;0.95;0.80;;;;;;;24.02;27.44;101174.28;5013877;28;20029;-76
2022/08/07 11:28:35;;;;;;;1.67;0.70;;;;;;;23.95;27.71;101172.09;5013800;28;20059;-76
2022/08/07 11:31:09;;;;;;;3.83;0.63;;;;;;;23.85;27.68;101173.91;5009743;28;20386;-74
2022/08/07 11:33:48;;;;;;;1.98;0.73;;;;;;;23.84;28.04;101169.41;5013980;28;20032;-75
2022/08/07 11:36:23;;;;;;;1.02;0.80;;;;;;;23.77;27.07;101177.50;5013748;28;20077;-74
2022/08/07 11:38:58;;;;;;;1.08;0.70;;;;;;;23.63;27.56;101151.84;5026889;28;20041;-75
2022/08/07 11:41:28;;;;;;;2.03;0.70;;;;;;;23.64;28.03;101157.13;5054711;28;20096;-74
2022/08/07 11:44:37;;;;;;;1.63;0.75;;;;;;;23.65;28.70;101158.69;5054462;28;20032;-74
2022/08/07 11:47:22;;;;;;;1.33;0.68;;;;;;;23.78;28.70;101161.56;4973658;28;20026;-74